Decoded Metar for YABA ( in ) (IATA:) | Meteo·Mobile Aviation Weather
aviador You're here:

YABA Decoded Metar

in
Report Time2019-02-17 20:00:00
UTC Time2019-02-17 20:18:31
Flight Rules mvfr MVFR
Wind110° at 05 kt
W.Decomp.*RWY 14: 4.3 kt HW 2.5 kt LCW
RWY 05: 2.5 kt HW 4.3 kt RCW
W.Rank110° ranks 7
Current wind is below 110° avg. (9.1)
Visibility9999 m
Phenomena:N/A
Clouds:Overcast 029 Hf
Expected CloudBase > 2,400 ft AGL from Temp-Dew spread
Ceiling2,900 ft
Temp16°C
Dew Point10°C (68% RH)
AAT14.3°C
QNH1018 hPa
Raw Report
METAR YABA 172000Z AUTO 11005KT 9999 // OVC029 16/10 Q1018=

Extra information for YABA:More info

Social comments